createdAt,value
2018-11-21T00:00:32.545Z,23.23
2018-11-21T00:03:00.324Z,22.47
2018-11-21T00:05:27.992Z,23.03
2018-11-21T00:07:55.586Z,22.10
2018-11-21T00:10:23.092Z,21.03
2018-11-21T00:12:52.393Z,21.33
2018-11-21T00:15:20.219Z,21.00
2018-11-21T00:17:47.910Z,20.30
2018-11-21T00:20:15.458Z,20.87
2018-11-21T00:23:21.917Z,21.50
2018-11-21T00:26:09.033Z,21.80
2018-11-21T00:28:36.761Z,20.43
2018-11-21T00:31:04.628Z,21.17
2018-11-21T00:33:32.212Z,21.47
2018-11-21T00:35:59.800Z,21.57
2018-11-21T00:38:27.571Z,21.70
2018-11-21T00:40:55.288Z,21.17
2018-11-21T00:43:22.953Z,21.23
2018-11-21T00:45:50.716Z,22.10
2018-11-21T00:48:18.558Z,22.90
2018-11-21T00:50:46.244Z,22.27
2018-11-21T00:53:13.906Z,24.03
2018-11-21T00:55:41.731Z,24.40
2018-11-21T00:58:28.799Z,24.60
2018-11-21T01:00:56.527Z,22.87
2018-11-21T01:03:24.235Z,23.90
2018-11-21T01:05:51.977Z,22.23
2018-11-21T01:08:19.739Z,24.73
2018-11-21T01:10:47.505Z,25.03
2018-11-21T01:13:34.514Z,25.17
2018-11-21T01:16:02.907Z,24.50
2018-11-21T01:18:32.712Z,26.47
2018-11-21T01:21:22.084Z,25.97
2018-11-21T01:24:09.093Z,26.17
2018-11-21T01:26:37.045Z,27.23
2018-11-21T01:29:24.075Z,26.43
2018-11-21T01:31:52.304Z,26.03
2018-11-21T01:34:20.002Z,27.30
2018-11-21T01:36:47.889Z,27.93
2018-11-21T01:39:34.889Z,27.13
2018-11-21T01:42:02.588Z,27.90
2018-11-21T01:44:30.304Z,26.93
2018-11-21T01:47:00.134Z,27.17
2018-11-21T01:49:27.889Z,26.93
2018-11-21T01:51:55.653Z,26.10
2018-11-21T01:54:23.990Z,26.10
2018-11-21T01:56:51.775Z,27.40
2018-11-21T01:59:38.804Z,26.83
2018-11-21T02:02:06.771Z,27.30
2018-11-21T02:04:34.540Z,29.27
2018-11-21T02:07:02.273Z,30.70
2018-11-21T02:09:30.072Z,27.47
2018-11-21T02:12:17.031Z,27.70
2018-11-21T02:14:44.852Z,27.17
2018-11-21T02:17:12.708Z,27.03
2018-11-21T02:19:40.473Z,26.20
2018-11-21T02:22:08.342Z,26.33
2018-11-21T02:24:36.151Z,27.60
2018-11-21T02:27:03.872Z,28.33
2018-11-21T02:29:31.633Z,28.17
2018-11-21T02:31:59.368Z,28.07
2018-11-21T02:34:27.258Z,28.80
2018-11-21T02:36:55.022Z,29.67
2018-11-21T02:39:22.739Z,30.37
2018-11-21T02:41:50.428Z,28.80
2018-11-21T02:44:18.155Z,29.93
2018-11-21T02:47:05.129Z,29.00
2018-11-21T02:49:32.877Z,30.10
2018-11-21T02:52:00.620Z,27.70
2018-11-21T02:54:28.414Z,28.17
2018-11-21T02:57:16.355Z,28.50
2018-11-21T02:59:44.191Z,30.17
2018-11-21T03:02:12.397Z,27.27
2018-11-21T03:04:59.404Z,26.37
2018-11-21T03:07:27.214Z,24.03
2018-11-21T03:09:54.909Z,23.63
2018-11-21T03:12:22.590Z,23.67
2018-11-21T03:14:50.355Z,22.30
2018-11-21T03:17:18.190Z,23.73
2018-11-21T03:19:45.990Z,23.27
2018-11-21T03:22:32.974Z,23.53
2018-11-21T03:25:03.161Z,21.63
2018-11-21T03:27:30.902Z,21.03
2018-11-21T03:29:58.643Z,23.90
2018-11-21T03:32:26.295Z,21.73
2018-11-21T03:34:54.174Z,22.07
2018-11-21T03:37:21.933Z,22.43
2018-11-21T03:39:49.581Z,20.57
2018-11-21T03:42:17.775Z,20.13
2018-11-21T03:44:47.785Z,20.70
2018-11-21T03:47:15.553Z,19.37
2018-11-21T03:49:43.384Z,17.97
2018-11-21T03:52:11.178Z,18.03
2018-11-21T03:54:38.943Z,16.83
2018-11-21T03:57:06.813Z,17.23
2018-11-21T03:59:34.573Z,16.23
2018-11-21T04:02:02.670Z,16.40
2018-11-21T04:04:30.307Z,17.47
2018-11-21T04:07:17.431Z,17.10
2018-11-21T04:09:45.048Z,16.63
2018-11-21T04:12:32.503Z,17.50
2018-11-21T04:15:00.252Z,17.50
2018-11-21T04:17:28.095Z,17.20
2018-11-21T04:19:55.900Z,17.13
2018-11-21T04:22:23.545Z,17.57
2018-11-21T04:24:51.382Z,16.97
2018-11-21T04:27:19.197Z,17.63
2018-11-21T04:29:49.250Z,16.13
2018-11-21T04:32:16.848Z,14.03
2018-11-21T04:35:04.088Z,12.67
2018-11-21T04:37:31.851Z,12.77
2018-11-21T04:39:59.638Z,12.87
2018-11-21T04:42:27.403Z,13.10
2018-11-21T04:44:55.190Z,11.87
2018-11-21T04:47:23.417Z,12.53
2018-11-21T04:49:51.246Z,12.00
2018-11-21T04:52:19.043Z,12.27
2018-11-21T04:54:46.815Z,11.80
2018-11-21T04:57:14.552Z,11.57
2018-11-21T04:59:42.436Z,10.40
2018-11-21T05:02:10.199Z,9.97
2018-11-21T05:04:38.067Z,9.30
2018-11-21T05:07:05.827Z,9.40
2018-11-21T05:09:33.485Z,9.10
2018-11-21T05:12:01.343Z,8.60
2018-11-21T05:14:29.094Z,9.13
2018-11-21T05:16:56.779Z,9.40
2018-11-21T05:19:24.605Z,9.13
2018-11-21T05:21:52.511Z,8.87
2018-11-21T05:24:20.276Z,8.30
2018-11-21T05:26:48.142Z,8.17
2018-11-21T05:29:16.457Z,7.83
2018-11-21T05:31:46.248Z,7.60
2018-11-21T05:34:14.064Z,8.00
2018-11-21T05:36:41.734Z,8.17
2018-11-21T05:39:10.814Z,7.90
2018-11-21T05:41:38.714Z,8.17
2018-11-21T05:44:06.344Z,7.67
2018-11-21T05:46:34.146Z,7.90
2018-11-21T05:49:01.781Z,7.70
2018-11-21T05:51:29.673Z,8.53
2018-11-21T05:53:57.329Z,8.03
2018-11-21T05:56:25.019Z,8.63
2018-11-21T05:59:12.007Z,8.60
2018-11-21T06:01:39.868Z,8.43
2018-11-21T06:04:07.696Z,7.93
2018-11-21T06:06:35.265Z,8.33
2018-11-21T06:09:04.218Z,7.47
2018-11-21T06:11:31.923Z,7.70
2018-11-21T06:14:00.334Z,7.70
2018-11-21T06:16:28.479Z,8.13
2018-11-21T06:18:56.262Z,8.73
2018-11-21T06:21:23.905Z,8.23
2018-11-21T06:23:51.620Z,8.80
2018-11-21T06:26:38.704Z,8.83
2018-11-21T06:29:06.472Z,9.10
2018-11-21T06:31:53.584Z,9.43
2018-11-21T06:37:08.525Z,9.20
2018-11-21T06:39:36.328Z,9.57
2018-11-21T06:42:04.190Z,9.40
2018-11-21T06:44:31.844Z,9.20
2018-11-21T06:46:59.721Z,9.47
2018-11-21T06:49:27.480Z,8.83
2018-11-21T06:52:14.505Z,8.37
2018-11-21T06:54:42.469Z,9.00
2018-11-21T06:57:10.344Z,8.70
2018-11-21T06:59:38.163Z,11.23
2018-11-21T07:02:25.212Z,18.73
2018-11-21T07:04:53.362Z,9.27
2018-11-21T07:07:40.403Z,11.13
2018-11-21T07:10:10.532Z,16.40
2018-11-21T07:12:38.387Z,9.10
2018-11-21T07:15:25.398Z,9.73
2018-11-21T07:20:37.308Z,10.33
2018-11-21T07:23:05.218Z,9.77
2018-11-21T07:25:32.942Z,9.20
2018-11-21T07:28:00.702Z,14.23
2018-11-21T07:30:28.426Z,22.97
2018-11-21T07:33:15.431Z,16.93
2018-11-21T07:35:58.606Z,8.33
2018-11-21T07:38:26.468Z,8.17
2018-11-21T07:40:54.233Z,8.67
2018-11-21T07:43:22.000Z,7.23
2018-11-21T07:45:49.847Z,6.83
2018-11-21T07:48:20.566Z,6.40
2018-11-21T07:50:45.369Z,6.53
2018-11-21T07:53:13.155Z,6.03
2018-11-21T07:55:41.019Z,6.77
2018-11-21T07:58:11.036Z,6.20
2018-11-21T08:01:25.892Z,17.37
2018-11-21T08:03:55.524Z,6.40
2018-11-21T08:07:01.890Z,5.80
2018-11-21T08:10:08.388Z,6.23
2018-11-21T08:12:49.129Z,5.90
2018-11-21T08:15:36.152Z,5.00
2018-11-21T08:18:12.938Z,5.60
2018-11-21T08:21:00.031Z,5.27
2018-11-21T08:23:47.146Z,5.70
2018-11-21T08:26:31.021Z,6.13
2018-11-21T08:29:13.835Z,13.30
2018-11-21T08:31:41.634Z,17.47
2018-11-21T08:34:28.669Z,16.33
2018-11-21T08:39:58.318Z,24.17
2018-11-21T08:42:45.747Z,29.93
2018-11-21T08:45:13.973Z,31.37
2018-11-21T08:47:41.772Z,31.37
2018-11-21T08:50:10.983Z,30.93
2018-11-21T08:52:38.597Z,29.80
2018-11-21T08:55:25.641Z,30.10
2018-11-21T08:57:53.315Z,30.83
2018-11-21T09:00:21.176Z,28.83
2018-11-21T09:05:36.156Z,31.97
2018-11-21T09:08:32.927Z,28.50
2018-11-21T09:11:16.689Z,29.30
2018-11-21T09:13:44.698Z,28.17
2018-11-21T09:16:12.467Z,25.73
2018-11-21T09:18:40.344Z,27.00
2018-11-21T09:21:08.216Z,29.87
2018-11-21T09:23:55.214Z,27.63
2018-11-21T09:26:22.978Z,27.60
2018-11-21T09:28:50.624Z,29.07
2018-11-21T09:31:18.374Z,27.10
2018-11-21T09:33:46.143Z,27.13
2018-11-21T09:36:33.185Z,29.77
2018-11-21T09:39:01.047Z,25.57
2018-11-21T09:41:28.914Z,26.73
2018-11-21T09:43:56.880Z,27.97
2018-11-21T09:46:24.950Z,20.40
2018-11-21T09:48:52.815Z,15.47
2018-11-21T09:51:20.481Z,10.50
2018-11-21T09:53:48.235Z,7.30
2018-11-21T09:56:15.876Z,6.70
2018-11-21T09:58:43.726Z,6.10
2018-11-21T10:01:50.066Z,6.03
2018-11-21T10:07:04.782Z,6.30
2018-11-21T10:09:51.927Z,6.70
2018-11-21T10:12:19.763Z,5.93
2018-11-21T10:14:47.631Z,7.43
2018-11-21T10:17:15.317Z,6.30
2018-11-21T10:19:43.053Z,6.30
2018-11-21T10:22:10.845Z,7.60
2018-11-21T10:24:38.615Z,6.53
2018-11-21T10:27:25.826Z,5.80
2018-11-21T10:29:53.592Z,5.50
2018-11-21T10:32:21.381Z,5.17
2018-11-21T10:34:49.121Z,5.73
2018-11-21T10:37:36.130Z,6.40
2018-11-21T10:40:04.309Z,4.80
2018-11-21T10:42:31.963Z,5.60
2018-11-21T10:44:59.700Z,6.80
2018-11-21T10:47:27.562Z,5.43
2018-11-21T10:49:55.363Z,6.33
2018-11-21T10:52:23.606Z,5.63
2018-11-21T10:54:51.464Z,6.10
2018-11-21T10:57:19.777Z,6.03
2018-11-21T11:00:13.581Z,6.03
2018-11-21T11:03:02.630Z,6.67
2018-11-21T11:05:49.829Z,6.37
2018-11-21T11:08:56.246Z,6.50
2018-11-21T11:11:43.303Z,7.23
2018-11-21T11:14:32.021Z,6.83
2018-11-21T11:17:39.314Z,6.53
2018-11-21T11:20:28.433Z,7.00
2018-11-21T11:23:34.858Z,6.60
2018-11-21T11:26:21.954Z,6.40
2018-11-21T11:29:09.073Z,7.03
2018-11-21T11:31:52.635Z,6.40
2018-11-21T11:34:33.359Z,6.10
2018-11-21T11:37:15.278Z,6.63
2018-11-21T11:39:58.390Z,6.47
2018-11-21T11:42:45.894Z,6.23
2018-11-21T11:45:51.651Z,7.90
2018-11-21T11:48:38.804Z,7.07
2018-11-21T11:51:26.038Z,6.20
2018-11-21T11:54:13.365Z,6.10
2018-11-21T11:57:00.489Z,5.80
2018-11-21T11:59:47.598Z,6.57
2018-11-21T12:02:34.803Z,9.13
2018-11-21T12:05:18.546Z,7.77
2018-11-21T12:08:05.024Z,5.57
2018-11-21T12:10:52.451Z,5.20
2018-11-21T12:13:40.147Z,5.67
2018-11-21T12:19:10.353Z,5.43
2018-11-21T12:24:43.784Z,5.90
2018-11-21T12:27:31.065Z,5.17
2018-11-21T12:33:05.023Z,5.87
2018-11-21T12:38:36.623Z,7.00
2018-11-21T12:41:23.676Z,6.63
2018-11-21T12:44:30.098Z,6.73
2018-11-21T12:47:11.745Z,5.33
2018-11-21T12:49:54.954Z,5.30
2018-11-21T12:52:44.107Z,5.30
2018-11-21T12:55:31.198Z,5.13
2018-11-21T12:58:18.222Z,5.17
2018-11-21T13:01:05.468Z,8.03
2018-11-21T13:06:35.236Z,5.57
2018-11-21T13:09:22.301Z,5.30
2018-11-21T13:12:09.501Z,6.13
2018-11-21T13:14:56.519Z,9.50
2018-11-21T13:17:43.638Z,9.47
2018-11-21T13:20:30.788Z,9.10
2018-11-21T13:23:17.872Z,8.50
2018-11-21T13:26:05.035Z,8.73
2018-11-21T13:31:38.803Z,9.07
2018-11-21T13:34:25.807Z,9.97
2018-11-21T13:37:12.926Z,9.97
2018-11-21T13:40:00.162Z,9.27
2018-11-21T13:48:39.121Z,8.67
2018-11-21T13:51:26.212Z,8.87
2018-11-21T13:56:39.454Z,14.63
2018-11-21T13:59:26.476Z,10.63
2018-11-21T14:04:39.751Z,8.13
2018-11-21T14:07:07.932Z,6.50
2018-11-21T14:09:55.022Z,7.20
2018-11-21T14:12:22.976Z,5.30
2018-11-21T14:14:50.750Z,5.73
2018-11-21T14:17:18.520Z,5.10
2018-11-21T14:19:46.348Z,5.23
2018-11-21T14:22:14.129Z,4.00
2018-11-21T14:25:01.160Z,6.87
2018-11-21T14:27:29.128Z,4.70
2018-11-21T14:29:57.206Z,5.40
2018-11-21T14:32:25.072Z,5.47
2018-11-21T14:34:52.735Z,4.40
2018-11-21T14:37:20.593Z,4.23
2018-11-21T14:39:48.435Z,4.47
2018-11-21T14:42:16.442Z,5.17
2018-11-21T14:45:03.535Z,5.37
2018-11-21T14:47:51.383Z,4.27
2018-11-21T14:53:05.084Z,5.10
2018-11-21T14:55:32.866Z,4.93
2018-11-21T14:58:19.914Z,4.60
2018-11-21T15:01:01.344Z,3.50
2018-11-21T15:03:43.011Z,3.70
2018-11-21T15:06:26.042Z,3.37
2018-11-21T15:09:09.206Z,3.63
2018-11-21T15:11:52.202Z,3.90
2018-11-21T15:14:20.015Z,4.37
2018-11-21T15:16:47.680Z,3.80
2018-11-21T15:19:15.314Z,3.70
2018-11-21T15:21:45.261Z,3.93
2018-11-21T15:24:13.093Z,3.33
2018-11-21T15:26:40.899Z,3.27
2018-11-21T15:29:08.741Z,4.43
2018-11-21T15:31:37.049Z,2.90
2018-11-21T15:34:04.789Z,3.43
2018-11-21T15:36:32.651Z,3.70
2018-11-21T15:39:00.544Z,4.07
2018-11-21T15:41:47.530Z,5.63
2018-11-21T15:44:15.374Z,5.80
2018-11-21T15:47:02.657Z,6.00
2018-11-21T15:49:46.256Z,5.40
2018-11-21T15:52:14.096Z,6.30
2018-11-21T15:54:41.700Z,6.17
2018-11-21T15:57:09.440Z,15.60
2018-11-21T15:59:56.767Z,7.70
2018-11-21T16:02:25.760Z,5.93
2018-11-21T16:04:53.606Z,4.50
2018-11-21T16:07:21.336Z,6.63
2018-11-21T16:09:49.147Z,6.33
2018-11-21T16:12:17.113Z,5.20
2018-11-21T16:14:44.861Z,5.90
2018-11-21T16:17:12.729Z,5.13
2018-11-21T16:19:40.506Z,7.57
2018-11-21T16:22:08.324Z,5.00
2018-11-21T16:24:36.137Z,4.63
2018-11-21T16:27:03.884Z,5.13
2018-11-21T16:29:36.781Z,6.07
2018-11-21T16:31:59.615Z,5.93
2018-11-21T16:34:27.469Z,3.87
2018-11-21T16:37:14.511Z,4.00
2018-11-21T16:39:42.287Z,3.53
2018-11-21T16:42:10.137Z,4.23
2018-11-21T16:44:38.008Z,5.07
2018-11-21T16:47:05.849Z,5.53
2018-11-21T16:49:33.663Z,5.20
2018-11-21T16:52:01.532Z,5.97
2018-11-21T16:54:29.235Z,5.57
2018-11-21T16:56:57.102Z,4.63
2018-11-21T16:59:25.031Z,4.60
2018-11-21T17:01:53.067Z,3.23
2018-11-21T17:04:20.934Z,3.73
2018-11-21T17:06:48.696Z,4.90
2018-11-21T17:09:17.424Z,4.27
2018-11-21T17:12:04.572Z,6.30
2018-11-21T17:14:32.265Z,9.10
2018-11-21T17:17:00.031Z,5.83
2018-11-21T17:19:27.790Z,4.80
2018-11-21T17:21:55.656Z,4.10
2018-11-21T17:24:23.417Z,4.37
2018-11-21T17:26:51.180Z,3.53
2018-11-21T17:29:18.949Z,3.90
2018-11-21T17:31:46.688Z,4.60
2018-11-21T17:34:14.504Z,4.53
2018-11-21T17:36:42.237Z,4.00
2018-11-21T17:39:11.986Z,3.70
2018-11-21T17:41:39.714Z,4.60
2018-11-21T17:44:07.497Z,4.30
2018-11-21T17:46:54.486Z,4.60
2018-11-21T17:49:22.250Z,4.70
2018-11-21T17:51:49.997Z,4.90
2018-11-21T17:54:36.941Z,5.83
2018-11-21T17:57:04.977Z,5.90
2018-11-21T17:59:32.763Z,6.20
2018-11-21T18:02:20.061Z,8.00
2018-11-21T18:04:50.064Z,7.70
2018-11-21T18:07:37.007Z,6.73
2018-11-21T18:13:04.872Z,5.57
2018-11-21T18:15:47.944Z,5.60
2018-11-21T18:18:16.093Z,4.33
2018-11-21T18:20:43.906Z,4.73
2018-11-21T18:23:11.729Z,5.07
2018-11-21T18:25:41.512Z,4.97
2018-11-21T18:28:09.097Z,4.80
2018-11-21T18:30:36.855Z,4.67
2018-11-21T18:33:04.689Z,5.00
2018-11-21T18:35:35.482Z,6.00
2018-11-21T18:38:00.258Z,5.67
2018-11-21T18:40:29.244Z,5.17
2018-11-21T18:42:57.085Z,5.00
2018-11-21T18:45:45.073Z,6.27
2018-11-21T18:48:28.236Z,6.00
2018-11-21T18:51:11.508Z,5.93
2018-11-21T18:53:54.896Z,5.97
2018-11-21T18:56:35.294Z,5.80
2018-11-21T18:59:41.859Z,5.80
2018-11-21T19:02:09.792Z,6.93
2018-11-21T19:04:37.651Z,7.60
2018-11-21T19:07:24.804Z,5.00
2018-11-21T19:09:52.570Z,6.40
2018-11-21T19:12:20.333Z,6.23
2018-11-21T19:14:48.057Z,6.47
2018-11-21T19:17:15.859Z,6.27
2018-11-21T19:19:44.133Z,4.93
2018-11-21T19:22:11.900Z,5.83
2018-11-21T19:24:39.565Z,5.50
2018-11-21T19:27:07.417Z,5.43
2018-11-21T19:29:54.616Z,5.90
2018-11-21T19:32:24.811Z,6.63
2018-11-21T19:34:52.430Z,5.60
2018-11-21T19:37:20.185Z,5.77
2018-11-21T19:39:48.054Z,5.30
2018-11-21T19:42:20.154Z,6.30
2018-11-21T19:44:43.547Z,6.50
2018-11-21T19:47:11.639Z,7.60
2018-11-21T19:49:39.616Z,7.70
2018-11-21T19:52:07.497Z,8.20
2018-11-21T19:54:35.134Z,7.50
2018-11-21T19:57:03.627Z,7.13
2018-11-21T19:59:31.495Z,7.00
2018-11-21T20:01:59.562Z,7.13
2018-11-21T20:04:27.801Z,7.47
2018-11-21T20:07:14.997Z,6.87
2018-11-21T20:09:42.718Z,7.43
2018-11-21T20:12:10.481Z,7.43
2018-11-21T20:14:38.251Z,7.30
2018-11-21T20:17:06.099Z,7.40
2018-11-21T20:19:33.766Z,7.40
2018-11-21T20:22:01.622Z,6.37
2018-11-21T20:24:29.383Z,8.17
2018-11-21T20:27:16.314Z,6.50
2018-11-21T20:29:46.697Z,5.90
2018-11-21T20:32:31.096Z,5.67
2018-11-21T20:34:58.932Z,6.17
2018-11-21T20:37:46.283Z,5.93
2018-11-21T20:40:16.021Z,6.03
2018-11-21T20:42:44.204Z,5.80
2018-11-21T20:45:32.241Z,6.00
2018-11-21T20:48:19.220Z,6.10
2018-11-21T20:50:47.156Z,6.37
2018-11-21T20:53:14.853Z,7.53
2018-11-21T20:55:43.382Z,6.90
2018-11-21T20:58:11.574Z,7.47
2018-11-21T21:00:39.376Z,7.70
2018-11-21T21:05:34.901Z,7.43
2018-11-21T21:08:02.756Z,6.50
2018-11-21T21:10:32.186Z,6.20
2018-11-21T21:12:59.719Z,6.83
2018-11-21T21:15:27.469Z,6.67
2018-11-21T21:17:55.246Z,6.43
2018-11-21T21:20:24.271Z,7.63
2018-11-21T21:22:53.222Z,8.20
2018-11-21T21:25:22.455Z,8.90
2018-11-21T21:27:50.060Z,8.57
2018-11-21T21:30:19.755Z,20.53
2018-11-21T21:33:06.708Z,9.93
2018-11-21T21:35:34.471Z,9.77
2018-11-21T21:38:02.007Z,9.93
2018-11-21T21:40:29.794Z,11.17
2018-11-21T21:42:57.565Z,12.23
2018-11-21T21:45:26.863Z,10.10
2018-11-21T21:47:54.661Z,9.87
2018-11-21T21:50:41.637Z,8.73
2018-11-21T21:53:09.668Z,9.90
2018-11-21T21:55:37.369Z,10.07
2018-11-21T21:58:05.034Z,10.07
2018-11-21T22:00:32.696Z,10.60
2018-11-21T22:03:01.096Z,11.80
2018-11-21T22:05:29.034Z,10.37
2018-11-21T22:07:57.149Z,10.50
2018-11-21T22:10:25.312Z,12.20
2018-11-21T22:12:53.335Z,10.37
2018-11-21T22:15:40.364Z,9.00
2018-11-21T22:18:12.092Z,8.33
2018-11-21T22:20:39.972Z,10.20
2018-11-21T22:23:07.864Z,7.97
2018-11-21T22:25:35.620Z,7.03
2018-11-21T22:28:03.393Z,7.30
2018-11-21T22:30:31.247Z,7.50
2018-11-21T22:32:59.520Z,7.07
2018-11-21T22:35:28.854Z,6.27
2018-11-21T22:37:56.694Z,6.57
2018-11-21T22:40:24.353Z,7.40
2018-11-21T22:42:52.179Z,7.17
2018-11-21T22:45:20.675Z,6.63
2018-11-21T22:47:48.569Z,7.00
2018-11-21T22:50:17.825Z,6.97
